AirNav   Phillips 66 Aviation Fuel
 
 295 users online  

NC27 Lower Creek Airport
Lenoir, North Carolina, USA

GOING TO LENOIR?


FAA INFORMATION EFFECTIVE 20 JULY 2017

Location

FAA Identifier: NC27
Lat/Long: 35-56-40.4700N / 081-29-24.3400W
35-56.674500N / 081-29.405667W
35.9445750 / -81.4900944
(estimated)
Elevation: 1195 ft. / 364.2 m (surveyed)
Variation: 05W (1985)
From city: 3 miles NE of LENOIR, NC
Time zone: UTC -4 (UTC -5 during Standard Time)
Zip code: 28645

Airport Operations

Airport use: Private use. Permission required prior to landing
Activation date: 06/1959
Control tower: no
ARTCC: ATLANTA CENTER
FSS: RALEIGH FLIGHT SERVICE STATION
Attendance: IREG
Wind indicator: yes
Segmented circle: no

Airport Communications

WX AWOS-3P at MRN (10 nm SW): 124.175 (828-757-0788)
WX ASOS at HKY (13 nm S): 118.325 (828-322-2996)
  • UNICOM--CTAF 122.900.

Nearby radio navigation aids

VOR radial/distance  VOR name  Freq  Var
BZMr297/13.0BARRETTS MOUNTAIN VOR/DME110.8006W

 
NDB name  Hdg/Dist  Freq  Var  ID
TAWBA323/13.133206WHK .... -.-
FIDDLERS039/16.639107WFIQ ..-. .. --.-
WILKI248/21.520906WUKF ..- -.- ..-.
HEMLOCK126/22.732002WBAR -... .- .-.
ASHEE203/30.541007WJUH .--- ..- ....
LINCOLNTON327/31.343206WIZN .. --.. -.

Airport Services

Airframe service: NONE
Powerplant service: NONE

Runway Information

Runway 5/23

Dimensions: 3200 x 150 ft. / 975 x 46 m
Surface: turf
RUNWAY 5  RUNWAY 23
Traffic pattern: leftright
Obstructions: none30 ft. pline, 400 ft. from runway

Airport Ownership and Management from official FAA records

Ownership: Privately-owned
Owner: LENOIR AVIATION CLUB, INC
PO BOX 220
LENOIR, NC 28645
Phone 828-754-3849
Manager: JAKE RHODES
2005 WILDWOOD RD
LENOIR, NC 28645

Airport Operational Statistics

Aircraft based on the field: 45
Single engine airplanes: 45
    

Instrument Procedures

There are no published instrument procedures at NC27.

Some nearby airports with instrument procedures:

KMRN - Foothills Regional Airport (10 nm SW)
KHKY - Hickory Regional Airport (13 nm S)
KUKF - Wilkes County Airport (25 nm NE)
KSVH - Statesville Regional Airport (28 nm E)
KGEV - Ashe County Airport (29 nm N)
 
Loc | Ops | Rwys | IFR | FBO | Links
Com | Nav | Svcs | Stats | Notes


 
Area around NC27 (Lower Creek Airport)
 
Road maps at: MapQuest Bing Google
 
Aerial photo
WARNING: Photo may not be current or correct
Aerial photo of NC27 (Lower Creek Airport)
Do you have a better or more recent aerial photo of Lower Creek Airport that you would like to share? If so, please send us your photo.

 
Sectional chart

 
Airport distance calculator
Flying to Lower Creek Airport? Find the distance to fly.

From to NC27

Sunrise and sunset
Times for 24-Jul-2017
 Local
(UTC-4)
 Zulu
(UTC)
Morning civil twilight05:5909:59
Sunrise06:2810:28
Sunset20:3700:37
Evening civil twilight21:0501:05

Current date and time
Zulu (UTC)  24-Jul-2017 07:59:04
Local (UTC-4)  24-Jul-2017 03:59:04
 
METAR
KMRN 
10nm SW 
231755Z AUTO 18005KT 7SM -RA SCT006 SCT015 SCT020 20/20 A2996 RMK AO2 P0034 6//// T01970195
KHKY 
13nm SE 
240753Z AUTO 22003KT 10SM -RA CLR 22/21 A2988 RMK AO2 RAB15 SLP096 P0000 T02170211 $
KTNB 
17nm NW 
118.525 828-268-8921
240735Z AUTO 28010KT 10SM CLR 19/18 A3002 RMK AO2 T01900184
TAF
KHKY 
13nm SE 
240537Z 2406/2506 26004KT 6SM -SHRA BR BKN060 FM240900 25003KT 5SM BR BKN070 FM241200 25003KT P6SM BKN250 FM241700 26004KT P6SM FEW060
NOTAMs
Click for the latest NOTAMs
NOTAMs are issued by the DoD/FAA and will open in a separate window not controlled by AirNav.

 

 
 

Would you like to see your business listed on this page?

 If your business provides an interesting product or service to pilots, flight crews, aircraft, or users of the Lower Creek Airport, you should consider listing it here.  To start the listing process, click on the button below
 
Add a business
 

Other Pages about Lower Creek Airport

Update a link
 
Copyright © AirNav, LLC. All rights reserved. Privacy Policy  Contact